Time;durP1;ratioP1;P1;durP2;ratioP2;P2;SDS_P1;SDS_P2;PMS_P1;PMS_P2;Temp;Humidity;BMP_temperature;BMP_pressure;BME280_temperature;BME280_humidity;BME280_pressure;Samples;Min_cycle;Max_cycle;Signal;HPM_P1;HPM_P2
2021/06/11 00:00:33;;;;;;;3.05;2.22;;;23.10;69.50;;;;;;5112679;28;20425;-50
2021/06/11 00:02:58;;;;;;;2.60;2.40;;;23.10;69.50;;;;;;5112640;28;20056;-50
2021/06/11 00:05:25;;;;;;;2.38;2.15;;;23.10;69.50;;;;;;5112436;28;20153;-51
2021/06/11 00:07:51;;;;;;;2.72;2.20;;;23.10;69.50;;;;;;5112891;28;20071;-50
2021/06/11 00:10:17;;;;;;;3.20;2.67;;;23.10;69.50;;;;;;5112640;28;20453;-50
2021/06/11 00:12:43;;;;;;;2.25;2.00;;;23.10;69.50;;;;;;5094655;28;20753;-52
2021/06/11 00:15:11;;;;;;;3.53;2.30;;;23.10;69.50;;;;;;5112582;28;20047;-51
2021/06/11 00:17:37;;;;;;;2.92;2.15;;;23.10;69.50;;;;;;5094406;28;20044;-52
2021/06/11 00:20:07;;;;;;;2.83;2.30;;;23.10;69.50;;;;;;5112396;28;20053;-51
2021/06/11 00:22:34;;;;;;;2.88;2.40;;;23.10;70.20;;;;;;5112587;28;20143;-51
2021/06/11 00:25:00;;;;;;;2.60;2.20;;;23.10;69.50;;;;;;5112275;28;20047;-51
2021/06/11 00:27:26;;;;;;;2.83;2.42;;;23.00;69.50;;;;;;5112579;28;20479;-52
2021/06/11 00:29:51;;;;;;;2.67;2.00;;;23.10;69.50;;;;;;5111903;28;20391;-51
2021/06/11 00:32:17;;;;;;;3.17;2.85;;;23.00;70.10;;;;;;5112324;28;20060;-50
2021/06/11 00:34:43;;;;;;;2.35;2.15;;;23.00;69.50;;;;;;5112145;28;20044;-49
2021/06/11 00:37:09;;;;;;;3.65;2.05;;;23.00;69.50;;;;;;5112236;28;20484;-50
2021/06/11 00:39:35;;;;;;;2.72;2.30;;;23.00;69.50;;;;;;5112296;28;20583;-52
2021/06/11 00:42:01;;;;;;;3.25;2.50;;;23.10;69.60;;;;;;5094166;28;20047;-51
2021/06/11 00:44:28;;;;;;;2.85;2.53;;;23.10;69.60;;;;;;5094250;28;20050;-51
2021/06/11 00:46:54;;;;;;;3.47;2.50;;;23.00;69.60;;;;;;5111912;28;20035;-51
2021/06/11 00:49:20;;;;;;;2.10;1.90;;;23.00;69.60;;;;;;5112115;28;20047;-51
2021/06/11 00:51:46;;;;;;;3.17;2.78;;;23.00;69.50;;;;;;5113559;28;20139;-49
2021/06/11 00:54:12;;;;;;;2.63;2.15;;;23.00;69.60;;;;;;5115948;28;20460;-51
2021/06/11 00:56:38;;;;;;;2.17;1.98;;;23.00;69.60;;;;;;5115931;28;20448;-49
2021/06/11 00:59:04;;;;;;;3.20;2.50;;;23.00;69.60;;;;;;5115909;28;20044;-51
2021/06/11 01:01:30;;;;;;;2.88;2.38;;;23.00;69.60;;;;;;5115476;28;20047;-50
2021/06/11 01:03:56;;;;;;;2.50;2.10;;;23.00;69.60;;;;;;5115634;28;20051;-50
2021/06/11 01:06:22;;;;;;;2.33;2.03;;;23.00;69.60;;;;;;5115409;28;20479;-51
2021/06/11 01:08:50;;;;;;;3.65;2.50;;;23.00;69.60;;;;;;5115703;28;20499;-48
2021/06/11 01:11:17;;;;;;;3.30;2.67;;;23.00;69.60;;;;;;5115578;28;20050;-51
2021/06/11 01:13:45;;;;;;;3.35;2.70;;;23.00;69.60;;;;;;5115539;28;20048;-49
2021/06/11 01:16:10;;;;;;;2.60;2.28;;;23.00;69.60;;;;;;5115172;28;20050;-50
2021/06/11 01:18:37;;;;;;;2.88;2.15;;;23.00;69.60;;;;;;5115297;28;20040;-48
2021/06/11 01:21:03;;;;;;;3.83;2.58;;;23.00;69.60;;;;;;5115148;28;20381;-51
2021/06/11 01:24:01;;;;;;;4.03;2.65;;;22.90;69.60;;;;;;5115454;28;20132;-50
2021/06/11 01:26:37;;;;;;;4.05;2.95;;;23.00;69.60;;;;;;5115161;28;20105;-51
2021/06/11 01:29:08;;;;;;;3.42;2.65;;;23.00;69.60;;;;;;5115026;28;20046;-50
2021/06/11 01:31:38;;;;;;;2.70;2.25;;;22.90;69.60;;;;;;5115002;28;20480;-52
2021/06/11 01:34:19;;;;;;;2.60;2.38;;;23.00;69.70;;;;;;5114672;28;20376;-51
2021/06/11 01:36:55;;;;;;;2.70;2.40;;;23.00;69.60;;;;;;5115056;28;20043;-52
2021/06/11 01:39:22;;;;;;;4.00;2.92;;;22.90;69.60;;;;;;5114983;28;20472;-51
2021/06/11 01:41:51;;;;;;;3.50;2.92;;;22.90;69.60;;;;;;5114942;28;20078;-51
2021/06/11 01:44:18;;;;;;;3.40;2.85;;;22.90;69.60;;;;;;5114816;28;20043;-50
2021/06/11 01:46:45;;;;;;;3.65;3.08;;;22.90;69.60;;;;;;5115134;28;20047;-48
2021/06/11 01:49:13;;;;;;;3.17;2.72;;;22.90;69.60;;;;;;5114418;28;20059;-50
2021/06/11 01:51:41;;;;;;;2.80;2.40;;;22.90;69.60;;;;;;5096486;28;20056;-51
2021/06/11 01:54:11;;;;;;;3.33;2.70;;;22.90;69.60;;;;;;5114592;28;20395;-50
2021/06/11 01:56:38;;;;;;;3.10;2.35;;;22.90;69.60;;;;;;5114577;28;20188;-48
2021/06/11 01:59:05;;;;;;;2.95;2.45;;;22.90;69.60;;;;;;5114613;28;20055;-51
2021/06/11 02:01:35;;;;;;;3.33;2.80;;;22.90;69.60;;;;;;5114375;28;20486;-49
2021/06/11 02:04:02;;;;;;;2.78;2.40;;;22.90;69.60;;;;;;5113491;28;20551;-49
2021/06/11 02:06:30;;;;;;;4.63;3.30;;;22.90;69.70;;;;;;5114503;28;20052;-50
2021/06/11 02:08:58;;;;;;;2.38;2.10;;;22.90;69.60;;;;;;5114516;28;20127;-51
2021/06/11 02:11:26;;;;;;;2.90;2.40;;;22.90;69.70;;;;;;5114338;28;20125;-49
2021/06/11 02:13:53;;;;;;;3.20;2.40;;;22.90;69.60;;;;;;5114689;28;20079;-51
2021/06/11 02:16:20;;;;;;;2.67;2.30;;;22.90;69.70;;;;;;5114293;28;20139;-49
2021/06/11 02:18:47;;;;;;;2.45;2.00;;;22.90;69.70;;;;;;5113995;28;20480;-50
2021/06/11 02:21:15;;;;;;;2.90;2.53;;;22.90;69.70;;;;;;5114220;28;20043;-51
2021/06/11 02:23:43;;;;;;;3.00;2.50;;;22.90;69.70;;;;;;5114301;28;20043;-51
2021/06/11 02:26:12;;;;;;;2.63;2.28;;;22.90;69.70;;;;;;5114017;28;20495;-51
2021/06/11 02:28:38;;;;;;;3.33;2.70;;;22.90;69.70;;;;;;5114269;28;20116;-48
2021/06/11 02:31:04;;;;;;;3.53;2.88;;;22.90;69.70;;;;;;5114261;28;20063;-48
2021/06/11 02:33:36;;;;;;;2.97;2.30;;;22.90;69.70;;;;;;5114720;28;20043;-46
2021/06/11 02:36:02;;;;;;;2.97;2.53;;;22.90;69.70;;;;;;5113969;28;20130;-51
2021/06/11 02:38:28;;;;;;;2.90;2.60;;;22.80;69.60;;;;;;5113981;28;20052;-50
2021/06/11 02:40:57;;;;;;;3.88;2.55;;;22.80;69.60;;;;;;5113773;28;20502;-53
2021/06/11 02:43:24;;;;;;;3.40;3.10;;;22.90;69.70;;;;;;5095792;28;20097;-50
2021/06/11 02:45:56;;;;;;;3.30;2.70;;;22.90;69.70;;;;;;5113773;28;20495;-52
2021/06/11 02:48:45;;;;;;;2.45;2.08;;;22.80;69.60;;;;;;5113775;28;20040;-51
2021/06/11 02:51:31;;;;;;;2.95;2.40;;;22.80;69.60;;;;;;5049825;28;20560;-51
2021/06/11 02:53:57;;;;;;;3.15;2.40;;;22.90;69.70;;;;;;5050081;28;20059;-49
2021/06/11 02:56:41;;;;;;;2.72;2.15;;;22.90;69.80;;;;;;5049701;28;20044;-52
2021/06/11 02:59:15;;;;;;;2.65;2.22;;;22.80;69.70;;;;;;5049835;28;20528;-50
2021/06/11 03:01:47;;;;;;;3.08;2.45;;;22.80;69.70;;;;;;5049537;28;20056;-56
2021/06/11 03:04:15;;;;;;;3.08;2.35;;;22.80;69.80;;;;;;5050055;28;20179;-55
2021/06/11 03:06:43;;;;;;;3.38;2.83;;;22.80;69.70;;;;;;5050056;28;20060;-52
2021/06/11 03:09:12;;;;;;;3.10;2.47;;;22.80;69.70;;;;;;5050554;28;20053;-50
2021/06/11 03:11:40;;;;;;;2.67;2.22;;;22.90;69.80;;;;;;5050277;28;20065;-52
2021/06/11 03:14:08;;;;;;;2.83;2.13;;;22.80;69.70;;;;;;5050250;28;20049;-52
2021/06/11 03:16:35;;;;;;;2.70;2.20;;;22.90;69.80;;;;;;5049475;28;20516;-50
2021/06/11 03:19:08;;;;;;;2.28;1.98;;;22.80;69.80;;;;;;5050445;28;20564;-54
2021/06/11 03:21:58;;;;;;;2.33;2.00;;;22.80;69.80;;;;;;5049771;28;20049;-51
2021/06/11 03:24:25;;;;;;;2.40;2.20;;;22.80;69.70;;;;;;5050359;28;20477;-52
2021/06/11 03:27:10;;;;;;;2.85;2.08;;;22.80;69.80;;;;;;5050106;28;20163;-50
2021/06/11 03:29:39;;;;;;;3.13;2.10;;;22.80;69.80;;;;;;5133553;27;20047;-50
2021/06/11 03:32:11;;;;;;;3.47;1.98;;;22.80;69.80;;;;;;5133627;27;20147;-50
2021/06/11 03:34:41;;;;;;;3.53;2.30;;;22.80;69.80;;;;;;5133425;27;20539;-52
2021/06/11 03:37:13;;;;;;;2.40;2.10;;;22.80;69.90;;;;;;5132783;27;20058;-52
2021/06/11 03:39:48;;;;;;;2.45;2.10;;;22.80;69.80;;;;;;5133241;27;20039;-51
2021/06/11 03:42:19;;;;;;;3.35;2.30;;;22.80;69.90;;;;;;5133501;27;20066;-51
2021/06/11 03:44:48;;;;;;;2.88;2.55;;;22.80;69.90;;;;;;5133550;27;20134;-49
2021/06/11 03:47:19;;;;;;;2.30;1.98;;;22.80;69.90;;;;;;5133505;27;20051;-51
2021/06/11 03:49:47;;;;;;;2.25;2.05;;;22.80;69.90;;;;;;5133343;27;20154;-48
2021/06/11 03:52:13;;;;;;;2.58;2.38;;;22.80;69.90;;;;;;5132735;27;20063;-51
2021/06/11 03:54:46;;;;;;;2.22;2.00;;;22.70;69.90;;;;;;5133231;27;20115;-52
2021/06/11 03:57:15;;;;;;;2.70;2.03;;;22.80;69.90;;;;;;5133247;28;20043;-51
2021/06/11 03:59:43;;;;;;;2.88;2.50;;;22.80;69.90;;;;;;5133283;28;20082;-50
2021/06/11 04:02:10;;;;;;;2.28;2.03;;;22.80;69.90;;;;;;5133130;28;20039;-51
2021/06/11 04:04:36;;;;;;;2.30;2.10;;;22.70;69.90;;;;;;5133066;28;20505;-51
2021/06/11 04:07:08;;;;;;;2.65;2.30;;;22.80;69.90;;;;;;5132963;28;20051;-54
2021/06/11 04:10:08;;;;;;;2.30;2.10;;;22.80;70.00;;;;;;5132686;28;20047;-51
2021/06/11 04:12:43;;;;;;;3.13;2.60;;;22.80;70.00;;;;;;5133100;28;20146;-51
2021/06/11 04:15:12;;;;;;;2.13;1.70;;;22.70;70.00;;;;;;5133034;28;20100;-51
2021/06/11 04:17:41;;;;;;;2.38;2.10;;;22.80;70.00;;;;;;5132938;28;20058;-50
2021/06/11 04:20:13;;;;;;;3.78;2.40;;;22.70;70.00;;;;;;5133210;28;20039;-49
2021/06/11 04:22:44;;;;;;;2.20;1.85;;;22.70;70.00;;;;;;5132951;28;20122;-53
2021/06/11 04:25:13;;;;;;;2.40;2.15;;;22.70;70.00;;;;;;5128943;28;20053;-51
2021/06/11 04:27:41;;;;;;;2.40;1.83;;;22.70;70.00;;;;;;5115633;28;20404;-51
2021/06/11 04:30:09;;;;;;;2.30;2.10;;;22.70;70.00;;;;;;5116354;28;20051;-51
2021/06/11 04:32:36;;;;;;;2.45;2.20;;;22.70;70.00;;;;;;5116695;28;20089;-53
2021/06/11 04:35:03;;;;;;;2.03;1.83;;;22.70;70.10;;;;;;5116508;28;20050;-50
2021/06/11 04:37:29;;;;;;;3.20;2.17;;;22.70;70.10;;;;;;5116166;28;20480;-52
2021/06/11 04:39:55;;;;;;;3.13;2.60;;;22.70;70.10;;;;;;5115905;28;20051;-51
2021/06/11 04:42:21;;;;;;;2.42;2.20;;;22.70;70.10;;;;;;5116410;28;20066;-51
2021/06/11 04:44:47;;;;;;;2.95;2.45;;;22.70;70.10;;;;;;5116201;28;20056;-56
2021/06/11 04:47:13;;;;;;;2.92;2.25;;;22.70;70.10;;;;;;5116147;28;20051;-54
2021/06/11 04:49:39;;;;;;;1.90;1.70;;;22.70;70.10;;;;;;5116443;28;20077;-55
2021/06/11 04:52:05;;;;;;;2.80;2.35;;;22.70;70.10;;;;;;5116311;28;20446;-56
2021/06/11 04:54:38;;;;;;;2.80;2.00;;;22.70;70.10;;;;;;5116235;28;20048;-55
2021/06/11 04:57:04;;;;;;;2.42;1.90;;;22.70;70.10;;;;;;5115607;28;20352;-52
2021/06/11 04:59:30;;;;;;;2.67;2.30;;;22.70;70.20;;;;;;5115759;28;20432;-55
2021/06/11 05:01:56;;;;;;;2.63;2.15;;;22.70;70.20;;;;;;5116162;28;20052;-52
2021/06/11 05:04:23;;;;;;;2.60;2.30;;;22.70;70.20;;;;;;5115936;28;20403;-55
2021/06/11 05:06:50;;;;;;;2.55;2.00;;;22.70;70.20;;;;;;5116009;28;20046;-54
2021/06/11 05:09:16;;;;;;;2.45;2.03;;;22.60;70.10;;;;;;5115645;28;20150;-54
2021/06/11 05:11:47;;;;;;;2.20;2.00;;;22.70;70.90;;;;;;5115265;28;20054;-50
2021/06/11 05:14:13;;;;;;;2.30;2.08;;;22.60;70.10;;;;;;5115573;28;20498;-53
2021/06/11 05:16:38;;;;;;;2.42;2.20;;;22.70;70.90;;;;;;5115566;28;20047;-53
2021/06/11 05:19:05;;;;;;;2.95;2.10;;;22.60;70.20;;;;;;5115396;28;20416;-51
2021/06/11 05:21:32;;;;;;;2.15;1.92;;;22.60;70.10;;;;;;5115514;28;20403;-52
2021/06/11 05:23:59;;;;;;;2.67;2.47;;;22.60;70.20;;;;;;5096992;28;20047;-52
2021/06/11 05:26:25;;;;;;;2.40;2.20;;;22.70;70.20;;;;;;5128920;27;20058;-53
2021/06/11 05:28:51;;;;;;;2.28;1.85;;;22.70;70.30;;;;;;5135653;27;20043;-53
2021/06/11 05:31:19;;;;;;;2.58;2.05;;;22.60;70.20;;;;;;5135731;27;20047;-52
2021/06/11 05:33:46;;;;;;;2.35;1.77;;;22.70;70.30;;;;;;5135705;27;20070;-51
2021/06/11 05:36:14;;;;;;;2.55;2.20;;;22.70;70.30;;;;;;5135186;27;20047;-48
2021/06/11 05:38:39;;;;;;;2.30;2.10;;;22.60;70.20;;;;;;5133705;27;20078;-53
2021/06/11 05:41:05;;;;;;;2.03;1.83;;;22.60;70.20;;;;;;5135311;27;20048;-52
2021/06/11 05:43:35;;;;;;;2.22;2.03;;;22.70;70.30;;;;;;5134914;27;20166;-53
2021/06/11 05:46:09;;;;;;;2.30;2.10;;;22.60;70.20;;;;;;5135622;27;20054;-51
2021/06/11 05:48:37;;;;;;;2.50;2.13;;;22.60;70.20;;;;;;5135621;27;20040;-50
2021/06/11 05:51:03;;;;;;;1.92;1.75;;;22.60;70.20;;;;;;5135310;27;20490;-50
2021/06/11 05:53:37;;;;;;;2.90;2.33;;;22.60;70.30;;;;;;5135401;27;20047;-54
2021/06/11 05:56:05;;;;;;;2.40;2.20;;;22.60;70.30;;;;;;5135273;27;20047;-54
2021/06/11 05:58:34;;;;;;;2.25;1.90;;;22.60;70.30;;;;;;5134612;27;20432;-56
2021/06/11 06:01:15;;;;;;;3.55;2.20;;;22.70;70.30;;;;;;5134782;27;20044;-52
2021/06/11 06:03:42;;;;;;;3.05;2.28;;;22.60;70.30;;;;;;5135367;27;20116;-56
2021/06/11 06:06:12;;;;;;;2.55;2.17;;;22.70;70.30;;;;;;5135367;27;20043;-52
2021/06/11 06:08:40;;;;;;;2.58;2.00;;;22.70;70.30;;;;;;5135170;27;20130;-52
2021/06/11 06:11:14;;;;;;;4.57;2.42;;;22.70;70.30;;;;;;5135231;27;20397;-51
2021/06/11 06:13:40;;;;;;;3.38;2.40;;;22.60;70.30;;;;;;5134450;27;20051;-54
2021/06/11 06:16:15;;;;;;;3.00;2.33;;;22.70;70.30;;;;;;5134754;27;20050;-52
2021/06/11 06:18:43;;;;;;;2.53;2.33;;;22.70;70.30;;;;;;5134984;27;20058;-54
2021/06/11 06:21:11;;;;;;;2.75;2.30;;;22.70;70.30;;;;;;5134806;27;20043;-54
2021/06/11 06:23:39;;;;;;;3.58;2.58;;;22.60;70.30;;;;;;5134681;27;20043;-54
2021/06/11 06:26:07;;;;;;;3.50;2.47;;;22.70;70.30;;;;;;5122872;27;20510;-54
2021/06/11 06:28:38;;;;;;;2.80;2.25;;;22.70;70.30;;;;;;5113747;28;20365;-53
2021/06/11 06:31:15;;;;;;;2.50;2.13;;;22.60;70.30;;;;;;5114318;28;20100;-52
2021/06/11 06:33:44;;;;;;;2.80;2.17;;;22.60;70.30;;;;;;5113874;28;20039;-53
2021/06/11 06:36:10;;;;;;;2.58;2.38;;;22.60;70.30;;;;;;5113871;28;20484;-51
2021/06/11 06:38:37;;;;;;;2.83;2.00;;;22.60;70.30;;;;;;5113959;28;20061;-52
2021/06/11 06:41:04;;;;;;;2.55;2.10;;;22.70;70.30;;;;;;5114012;28;20052;-53
2021/06/11 06:43:30;;;;;;;2.72;2.10;;;22.70;70.30;;;;;;5113870;28;20051;-50
2021/06/11 06:45:57;;;;;;;2.08;1.88;;;22.70;70.30;;;;;;5113701;28;20142;-50
2021/06/11 06:48:23;;;;;;;2.17;1.88;;;22.70;70.30;;;;;;5114040;28;20517;-52
2021/06/11 06:50:49;;;;;;;2.10;1.80;;;22.70;70.30;;;;;;5113568;28;20061;-54
2021/06/11 06:53:18;;;;;;;2.30;1.92;;;22.70;70.30;;;;;;5113937;28;20052;-54
2021/06/11 06:55:44;;;;;;;2.00;1.80;;;22.70;70.30;;;;;;5113854;28;20082;-51
2021/06/11 06:58:11;;;;;;;2.08;1.85;;;22.70;70.30;;;;;;5113655;28;20129;-50
2021/06/11 07:00:36;;;;;;;2.42;1.90;;;22.70;70.30;;;;;;5113060;28;20130;-54
2021/06/11 07:03:03;;;;;;;1.83;1.63;;;22.70;71.00;;;;;;5113565;28;20119;-51
2021/06/11 07:05:30;;;;;;;2.15;1.70;;;22.70;70.30;;;;;;5113380;28;20036;-52
2021/06/11 07:08:07;;;;;;;2.13;1.85;;;22.70;70.30;;;;;;5113657;28;20051;-50
2021/06/11 07:10:34;;;;;;;1.70;1.60;;;22.70;70.30;;;;;;5113881;28;20057;-50
2021/06/11 07:13:01;;;;;;;2.33;1.88;;;22.70;70.30;;;;;;5113679;28;20054;-49
2021/06/11 07:15:29;;;;;;;2.35;1.88;;;22.70;70.30;;;;;;5112979;28;20075;-47
2021/06/11 07:17:57;;;;;;;1.70;1.60;;;22.70;70.30;;;;;;5113069;28;20079;-53
2021/06/11 07:20:23;;;;;;;1.90;1.70;;;22.70;70.30;;;;;;5112916;28;20487;-50
2021/06/11 07:22:49;;;;;;;2.25;1.75;;;22.70;70.30;;;;;;5113103;28;20399;-52
2021/06/11 07:25:15;;;;;;;2.08;1.77;;;22.70;70.30;;;;;;5114552;27;20050;-54
2021/06/11 07:27:41;;;;;;;2.22;1.88;;;22.70;70.30;;;;;;5133340;27;20484;-54
2021/06/11 07:30:09;;;;;;;1.95;1.65;;;22.80;70.40;;;;;;5133585;27;20046;-55
2021/06/11 07:32:36;;;;;;;2.60;2.30;;;22.70;70.30;;;;;;5132542;27;20127;-52
2021/06/11 07:35:04;;;;;;;2.25;2.05;;;22.80;70.40;;;;;;5133148;27;20107;-53
2021/06/11 07:37:30;;;;;;;2.92;1.85;;;22.80;70.40;;;;;;5133329;27;20050;-53
2021/06/11 07:39:56;;;;;;;2.10;1.90;;;22.80;70.40;;;;;;5133461;27;20380;-50
2021/06/11 07:42:22;;;;;;;2.83;2.20;;;22.80;70.40;;;;;;5133243;27;20079;-55
2021/06/11 07:44:48;;;;;;;2.80;2.05;;;22.80;70.40;;;;;;5133467;27;20052;-48
2021/06/11 07:47:15;;;;;;;2.65;2.00;;;22.80;70.50;;;;;;5132914;27;20043;-53
2021/06/11 07:50:00;;;;;;;2.35;1.90;;;22.80;70.50;;;;;;5133415;27;20043;-56
2021/06/11 07:52:36;;;;;;;2.35;1.90;;;22.80;70.50;;;;;;5133468;27;20187;-54
2021/06/11 07:55:07;;;;;;;1.70;1.60;;;22.80;70.50;;;;;;5133109;27;20039;-51
2021/06/11 07:57:52;;;;;;;2.33;2.05;;;22.80;70.50;;;;;;5117696;28;20637;-50
2021/06/11 08:00:20;;;;;;;1.92;1.80;;;22.80;70.50;;;;;;5133591;27;20043;-55
2021/06/11 08:02:46;;;;;;;1.85;1.67;;;22.80;70.50;;;;;;5139182;27;20055;-51
2021/06/11 08:05:31;;;;;;;1.98;1.70;;;22.90;70.50;;;;;;5124241;27;20043;-47
2021/06/11 08:07:57;;;;;;;2.53;1.98;;;22.90;70.50;;;;;;5139908;27;20419;-53
2021/06/11 08:10:33;;;;;;;1.70;1.60;;;22.90;70.50;;;;;;5139690;27;20039;-51
2021/06/11 08:12:59;;;;;;;2.45;1.77;;;22.90;70.50;;;;;;5139481;27;20035;-55
2021/06/11 08:15:27;;;;;;;1.90;1.70;;;22.90;70.50;;;;;;5139286;27;20472;-52
2021/06/11 08:17:52;;;;;;;2.00;1.77;;;22.90;70.50;;;;;;5138860;27;20162;-53
2021/06/11 08:20:18;;;;;;;1.52;1.42;;;22.90;70.50;;;;;;5139578;27;20049;-49
2021/06/11 08:22:46;;;;;;;1.67;1.58;;;22.90;70.50;;;;;;5139589;27;20058;-52
2021/06/11 08:25:13;;;;;;;2.00;1.58;;;22.90;70.50;;;;;;5121099;27;20062;-47
2021/06/11 08:27:50;;;;;;;1.77;1.60;;;22.90;70.40;;;;;;5139959;27;20043;-45
2021/06/11 08:30:19;;;;;;;1.63;1.50;;;22.90;70.40;;;;;;5121798;27;20059;-50
2021/06/11 08:32:46;;;;;;;1.73;1.55;;;22.90;70.40;;;;;;5139622;27;20051;-53
2021/06/11 08:35:14;;;;;;;1.80;1.52;;;22.90;70.40;;;;;;5139409;27;20066;-50
2021/06/11 08:37:40;;;;;;;2.22;1.67;;;22.90;70.30;;;;;;5121055;27;20063;-53
2021/06/11 08:40:06;;;;;;;1.85;1.38;;;23.00;70.30;;;;;;5122904;27;20068;-51
2021/06/11 08:42:33;;;;;;;2.00;1.58;;;23.00;70.30;;;;;;5107646;27;20048;-50
2021/06/11 08:45:10;;;;;;;1.55;1.45;;;23.00;70.30;;;;;;5110408;28;20039;-48
2021/06/11 08:47:49;;;;;;;1.63;1.52;;;23.10;70.40;;;;;;5098826;28;20125;-49
2021/06/11 08:50:26;;;;;;;1.38;1.27;;;23.00;70.30;;;;;;5116669;27;20054;-49
2021/06/11 08:52:59;;;;;;;1.98;1.58;;;23.00;70.30;;;;;;5139265;27;20039;-55
2021/06/11 08:55:27;;;;;;;1.65;1.23;;;23.10;70.30;;;;;;5139357;27;20099;-50
2021/06/11 08:57:54;;;;;;;1.58;1.48;;;23.10;70.30;;;;;;5102475;28;20488;-50
2021/06/11 09:00:22;;;;;;;10.70;8.13;;;23.10;70.20;;;;;;5098392;28;20044;-49
2021/06/11 09:03:12;;;;;;;13.27;8.95;;;23.10;70.30;;;;;;5098398;28;20058;-54
2021/06/11 09:05:40;;;;;;;13.02;9.68;;;23.30;70.80;;;;;;5111094;28;20075;-60
2021/06/11 09:08:16;;;;;;;10.32;8.45;;;24.30;71.10;;;;;;5118686;28;20048;-55
2021/06/11 09:10:44;;;;;;;11.15;9.50;;;25.10;68.30;;;;;;5115883;28;20164;-51
2021/06/11 09:13:10;;;;;;;10.45;8.23;;;25.20;67.10;;;;;;5116464;27;20044;-48
2021/06/11 09:15:38;;;;;;;9.45;7.65;;;25.10;66.40;;;;;;5114350;28;20044;-56
2021/06/11 09:18:19;;;;;;;8.73;7.15;;;25.00;66.10;;;;;;5115106;28;20054;-53
2021/06/11 09:21:26;;;;;;;11.27;7.90;;;24.90;66.00;;;;;;5103565;28;20580;-51
2021/06/11 09:27:04;;;;;;;9.13;7.70;;;24.70;66.60;;;;;;5095650;28;20048;-56
2021/06/11 09:29:33;;;;;;;8.75;7.70;;;24.80;66.40;;;;;;5094848;28;20044;-57
2021/06/11 09:32:21;;;;;;;9.05;7.43;;;24.80;66.20;;;;;;5094910;28;20370;-57
2021/06/11 09:35:07;;;;;;;9.77;7.75;;;24.60;66.20;;;;;;5094842;28;20058;-57
2021/06/11 09:37:46;;;;;;;9.20;8.02;;;24.60;66.40;;;;;;5110453;28;20051;-57
2021/06/11 09:40:16;;;;;;;10.18;6.63;;;24.50;66.50;;;;;;5113408;28;20043;-57
2021/06/11 09:43:02;;;;;;;8.50;6.78;;;24.40;66.60;;;;;;5115422;28;20484;-57
2021/06/11 09:45:29;;;;;;;7.63;6.32;;;24.30;66.70;;;;;;5115519;28;20473;-57
2021/06/11 09:47:56;;;;;;;7.05;6.20;;;24.20;66.90;;;;;;5113520;28;20040;-57
2021/06/11 09:50:37;;;;;;;7.05;6.15;;;24.20;67.00;;;;;;5115059;28;20134;-58
2021/06/11 09:53:10;;;;;;;6.80;5.78;;;24.10;67.10;;;;;;5114775;28;20381;-58
2021/06/11 09:55:39;;;;;;;6.85;5.40;;;24.10;67.30;;;;;;5114814;28;20143;-58
2021/06/11 09:58:12;;;;;;;5.78;5.05;;;24.10;67.40;;;;;;5112973;28;20134;-57
2021/06/11 10:00:52;;;;;;;7.88;5.93;;;24.00;67.60;;;;;;5114698;28;20112;-56
2021/06/11 10:03:25;;;;;;;6.15;5.30;;;24.00;67.50;;;;;;5114732;28;20108;-58
2021/06/11 10:05:53;;;;;;;7.03;5.45;;;23.90;67.60;;;;;;5114747;28;20082;-57
2021/06/11 10:08:21;;;;;;;6.82;5.00;;;23.90;67.70;;;;;;5108810;28;20373;-54
2021/06/11 10:10:49;;;;;;;6.22;5.30;;;23.90;67.80;;;;;;5094059;28;20048;-59
2021/06/11 10:13:17;;;;;;;6.65;4.50;;;23.90;67.90;;;;;;5094115;28;20036;-58
2021/06/11 10:15:45;;;;;;;6.00;5.13;;;23.90;68.00;;;;;;5093984;28;20044;-57
2021/06/11 10:18:12;;;;;;;6.40;4.40;;;23.80;68.00;;;;;;5093870;28;20476;-57
2021/06/11 10:20:38;;;;;;;4.65;3.85;;;23.80;68.10;;;;;;5094923;28;20151;-57
2021/06/11 10:23:07;;;;;;;4.85;3.78;;;23.80;68.10;;;;;;5093448;28;20050;-57
2021/06/11 10:25:33;;;;;;;5.93;4.22;;;23.80;68.20;;;;;;5097614;28;20117;-58
2021/06/11 10:28:01;;;;;;;5.32;4.38;;;23.80;68.20;;;;;;5114009;28;20051;-58
2021/06/11 10:30:28;;;;;;;4.57;4.07;;;23.80;68.30;;;;;;5126278;27;20051;-58
2021/06/11 10:32:55;;;;;;;4.97;3.85;;;23.80;68.30;;;;;;5134613;27;20107;-58
2021/06/11 10:35:40;;;;;;;3.97;3.33;;;23.80;68.30;;;;;;5134539;27;20126;-59
2021/06/11 10:38:28;;;;;;;5.35;3.55;;;23.80;68.40;;;;;;5134040;27;20050;-57
2021/06/11 10:41:03;;;;;;;4.47;3.40;;;23.80;68.50;;;;;;5133902;27;20046;-56
2021/06/11 10:43:38;;;;;;;4.32;3.50;;;23.80;68.40;;;;;;5133805;27;20504;-57
2021/06/11 10:46:19;;;;;;;;;;;23.80;68.50;;;;;;5134650;27;20080;-56
2021/06/11 10:49:01;;;;;;;3.45;3.15;;;23.80;68.40;;;;;;5134436;27;19919;-57
2021/06/11 10:51:47;;;;;;;3.72;3.25;;;23.80;68.50;;;;;;5133842;27;20051;-57
2021/06/11 10:54:16;;;;;;;3.30;2.97;;;23.80;68.50;;;;;;5133795;27;20047;-57
2021/06/11 10:56:57;;;;;;;4.32;3.65;;;23.80;68.50;;;;;;5133859;27;20122;-57
2021/06/11 10:59:38;;;;;;;4.90;3.47;;;23.80;68.60;;;;;;5134069;27;20506;-57
2021/06/11 11:02:06;;;;;;;4.50;3.28;;;23.80;68.50;;;;;;5133649;27;20039;-57
2021/06/11 11:04:35;;;;;;;3.90;2.90;;;23.80;68.60;;;;;;5133981;27;20051;-59
2021/06/11 11:07:36;;;;;;;2.92;2.60;;;23.80;68.60;;;;;;5133784;27;20221;-58
2021/06/11 11:10:02;;;;;;;3.80;2.75;;;23.80;68.50;;;;;;5133194;27;20497;-59
2021/06/11 11:12:31;;;;;;;3.13;2.53;;;23.80;68.60;;;;;;5133647;27;20035;-57
2021/06/11 11:14:59;;;;;;;4.72;3.53;;;23.80;68.60;;;;;;5133226;27;20448;-58
2021/06/11 11:17:27;;;;;;;4.93;3.80;;;23.90;68.70;;;;;;5133002;27;20043;-58
2021/06/11 11:19:53;;;;;;;6.05;3.63;;;23.90;68.50;;;;;;5133167;27;20114;-58
2021/06/11 11:22:39;;;;;;;5.78;3.60;;;24.00;68.50;;;;;;5133697;27;20491;-59
2021/06/11 11:25:13;;;;;;;;;;;24.10;68.40;;;;;;5132890;27;20051;-58
2021/06/11 11:27:53;;;;;;;5.90;3.50;;;24.10;68.40;;;;;;5133451;27;19919;-57
2021/06/11 11:30:24;;;;;;;5.18;3.50;;;24.10;68.30;;;;;;5133233;27;20082;-58
2021/06/11 11:32:50;;;;;;;5.28;3.40;;;24.10;68.30;;;;;;5133423;27;20058;-61
2021/06/11 11:35:22;;;;;;;4.55;3.10;;;24.10;68.20;;;;;;5132268;27;20043;-59
2021/06/11 11:37:51;;;;;;;5.32;3.28;;;24.10;68.20;;;;;;5131949;27;20039;-57
2021/06/11 11:40:21;;;;;;;4.00;3.28;;;24.20;68.20;;;;;;5132519;27;20062;-59
2021/06/11 11:42:47;;;;;;;4.00;2.55;;;24.20;68.20;;;;;;5132933;27;20043;-64
2021/06/11 11:45:13;;;;;;;3.00;2.58;;;24.20;68.10;;;;;;5132872;27;20053;-59
2021/06/11 11:47:39;;;;;;;4.03;2.80;;;24.20;68.00;;;;;;5132989;27;20050;-60
2021/06/11 11:50:06;;;;;;;4.32;2.90;;;24.20;68.00;;;;;;5132829;27;20522;-58
2021/06/11 11:52:36;;;;;;;2.65;2.42;;;24.20;68.00;;;;;;5130636;27;20201;-63
2021/06/11 11:55:04;;;;;;;3.78;2.70;;;24.20;68.00;;;;;;5114421;27;20065;-62
2021/06/11 11:57:30;;;;;;;3.20;2.50;;;24.30;68.00;;;;;;5132248;27;20067;-63
2021/06/11 12:00:00;;;;;;;3.42;2.60;;;24.30;68.00;;;;;;5133288;28;20099;-59
2021/06/11 12:02:27;;;;;;;3.72;2.30;;;24.30;68.00;;;;;;5133256;28;20070;-57
2021/06/11 12:04:55;;;;;;;2.85;2.47;;;24.30;68.00;;;;;;5130250;28;20039;-59
2021/06/11 12:07:22;;;;;;;2.88;2.28;;;24.30;67.90;;;;;;5132753;28;20071;-59
2021/06/11 12:09:48;;;;;;;3.65;2.55;;;24.30;67.90;;;;;;5133214;28;20047;-59
2021/06/11 12:12:14;;;;;;;2.58;2.30;;;24.30;67.90;;;;;;5132831;28;20466;-60
2021/06/11 12:14:40;;;;;;;3.22;2.08;;;24.30;67.90;;;;;;5133361;28;20548;-60
2021/06/11 12:17:06;;;;;;;3.95;2.40;;;24.30;67.90;;;;;;5133237;28;20407;-62
2021/06/11 12:19:32;;;;;;;3.80;2.10;;;24.30;67.80;;;;;;5133002;28;20104;-60
2021/06/11 12:21:58;;;;;;;2.42;1.92;;;24.30;67.80;;;;;;5132899;28;20445;-60
2021/06/11 12:24:24;;;;;;;2.45;1.95;;;24.30;67.80;;;;;;5132825;28;20069;-61
2021/06/11 12:26:50;;;;;;;2.65;2.00;;;24.30;67.70;;;;;;5127777;28;20067;-61
2021/06/11 12:29:17;;;;;;;2.60;2.10;;;24.30;67.70;;;;;;5132660;28;20068;-62
2021/06/11 12:31:43;;;;;;;3.22;2.05;;;24.30;67.70;;;;;;5132729;28;20113;-60
2021/06/11 12:34:09;;;;;;;7.20;3.88;;;24.30;67.70;;;;;;5117351;28;20151;-57
2021/06/11 12:36:35;;;;;;;4.65;2.15;;;24.30;67.70;;;;;;5112554;28;20392;-57
2021/06/11 12:39:03;;;;;;;2.47;2.20;;;24.30;67.70;;;;;;5112457;28;20079;-58
2021/06/11 12:41:38;;;;;;;3.15;2.85;;;24.30;67.70;;;;;;5112362;28;20104;-56
2021/06/11 12:44:17;;;;;;;3.35;2.58;;;24.30;67.70;;;;;;5111405;28;20050;-56
2021/06/11 12:46:54;;;;;;;2.72;2.30;;;24.30;67.70;;;;;;5111999;28;20071;-57
2021/06/11 12:49:22;;;;;;;3.30;2.85;;;24.40;67.80;;;;;;5115902;28;20112;-57
2021/06/11 12:51:48;;;;;;;5.88;4.93;;;24.30;67.70;;;;;;5116033;28;20051;-59
2021/06/11 12:54:15;;;;;;;9.32;5.38;;;24.40;68.40;;;;;;5115224;28;20074;-54
2021/06/11 12:56:43;;;;;;;6.57;5.97;;;24.50;67.80;;;;;;5107019;28;20055;-57
2021/06/11 12:59:10;;;;;;;6.60;5.57;;;24.60;67.90;;;;;;5115485;28;20112;-57
2021/06/11 13:01:36;;;;;;;7.50;5.45;;;24.70;67.20;;;;;;5115851;28;20125;-50
2021/06/11 13:04:03;;;;;;;7.57;5.60;;;24.90;66.90;;;;;;5115309;28;20043;-54